createdAt,value
2019-04-30T00:01:07.526Z,11.03
2019-04-30T00:03:40.752Z,10.33
2019-04-30T00:06:10.344Z,10.37
2019-04-30T00:08:39.967Z,8.50
2019-04-30T00:11:10.764Z,8.63
2019-04-30T00:13:40.783Z,12.50
2019-04-30T00:16:10.254Z,13.73
2019-04-30T00:18:54.826Z,11.20
2019-04-30T00:21:15.179Z,12.30
2019-04-30T00:23:42.244Z,14.57
2019-04-30T00:26:11.825Z,11.57
2019-04-30T00:28:46.238Z,14.90
2019-04-30T00:31:17.368Z,14.50
2019-04-30T00:33:44.944Z,15.33
2019-04-30T00:36:14.841Z,14.40
2019-04-30T00:38:45.882Z,15.40
2019-04-30T00:41:15.597Z,14.17
2019-04-30T00:43:48.737Z,16.00
2019-04-30T00:46:17.348Z,17.77
2019-04-30T00:48:47.514Z,14.73
2019-04-30T00:51:21.119Z,16.43
2019-04-30T00:53:51.322Z,15.00
2019-04-30T00:56:19.865Z,15.70
2019-04-30T00:58:50.897Z,17.60
2019-04-30T01:01:48.463Z,16.43
2019-04-30T01:04:24.669Z,15.18
2019-04-30T01:06:59.893Z,15.25
2019-04-30T01:09:25.847Z,17.27
2019-04-30T01:11:55.390Z,16.32
2019-04-30T01:14:28.323Z,17.43
2019-04-30T01:16:59.295Z,15.30
2019-04-30T01:19:30.655Z,15.20
2019-04-30T01:21:59.726Z,15.13
2019-04-30T01:24:31.608Z,14.98
2019-04-30T01:27:06.873Z,14.90
2019-04-30T01:29:40.995Z,13.90
2019-04-30T01:32:10.522Z,16.53
2019-04-30T01:34:39.387Z,18.07
2019-04-30T01:37:08.808Z,19.33
2019-04-30T01:39:39.135Z,15.03
2019-04-30T01:42:11.372Z,14.15
2019-04-30T01:44:43.441Z,14.33
2019-04-30T01:47:11.148Z,15.07
2019-04-30T01:49:42.662Z,15.58
2019-04-30T01:52:11.895Z,14.90
2019-04-30T01:54:41.482Z,14.78
2019-04-30T01:57:23.018Z,14.50
2019-04-30T02:00:13.554Z,15.93
2019-04-30T02:02:43.403Z,13.33
2019-04-30T02:05:12.883Z,16.10
2019-04-30T02:07:42.413Z,16.17
2019-04-30T02:10:12.153Z,12.67
2019-04-30T02:12:41.758Z,14.10
2019-04-30T02:15:11.253Z,14.70
2019-04-30T02:17:40.778Z,16.37
2019-04-30T02:20:10.463Z,14.77
2019-04-30T02:22:40.007Z,12.50
2019-04-30T02:25:09.773Z,14.33
2019-04-30T02:27:39.617Z,14.77
2019-04-30T02:30:11.358Z,13.37
2019-04-30T02:32:40.990Z,11.35
2019-04-30T02:35:25.717Z,13.13
2019-04-30T02:38:13.011Z,14.00
2019-04-30T02:40:42.819Z,13.85
2019-04-30T02:43:13.630Z,15.23
2019-04-30T02:45:44.300Z,16.57
2019-04-30T02:48:15.251Z,14.00
2019-04-30T02:50:46.025Z,13.33
2019-04-30T02:53:56.004Z,12.20
2019-04-30T02:56:27.099Z,13.55
2019-04-30T02:59:00.395Z,14.27
2019-04-30T03:01:30.581Z,14.47
2019-04-30T03:04:00.001Z,16.00
2019-04-30T03:06:30.661Z,14.70
2019-04-30T03:09:01.229Z,15.10
2019-04-30T03:11:31.447Z,16.23
2019-04-30T03:14:00.962Z,15.30
2019-04-30T03:16:40.097Z,14.98
2019-04-30T03:19:22.211Z,15.67
2019-04-30T03:22:00.143Z,16.23
2019-04-30T03:24:30.087Z,15.33
2019-04-30T03:27:00.568Z,17.27
2019-04-30T03:29:30.503Z,18.70
2019-04-30T03:32:02.967Z,16.70
2019-04-30T03:34:33.021Z,16.97
2019-04-30T03:37:02.461Z,17.03
2019-04-30T03:39:34.015Z,17.30
2019-04-30T03:42:03.298Z,17.50
2019-04-30T03:44:32.912Z,18.90
2019-04-30T03:47:02.457Z,17.87
2019-04-30T03:49:32.939Z,16.70
2019-04-30T03:52:04.044Z,18.20
2019-04-30T03:54:33.583Z,16.70
2019-04-30T03:57:03.128Z,17.70
2019-04-30T03:59:32.643Z,18.57
2019-04-30T04:02:33.313Z,21.07
2019-04-30T04:05:15.395Z,16.50
2019-04-30T04:07:59.691Z,17.27
2019-04-30T04:10:45.898Z,18.10
2019-04-30T04:13:15.497Z,19.47
2019-04-30T04:15:45.024Z,15.50
2019-04-30T04:18:14.526Z,17.43
2019-04-30T04:20:44.254Z,19.60
2019-04-30T04:23:13.860Z,17.47
2019-04-30T04:25:43.656Z,18.37
2019-04-30T04:28:13.168Z,19.27
2019-04-30T04:30:43.626Z,17.63
2019-04-30T04:33:13.135Z,20.17
2019-04-30T04:35:42.633Z,17.03
2019-04-30T04:38:12.697Z,17.52
2019-04-30T04:40:42.417Z,18.23
2019-04-30T04:43:12.207Z,18.00
2019-04-30T04:45:43.743Z,20.17
2019-04-30T04:48:13.007Z,19.23
2019-04-30T04:50:42.587Z,19.30
2019-04-30T04:53:12.100Z,19.17
2019-04-30T04:55:41.592Z,19.37
2019-04-30T04:58:12.938Z,19.23
2019-04-30T05:00:42.297Z,19.00
2019-04-30T05:03:21.006Z,19.50
2019-04-30T05:05:50.509Z,20.93
2019-04-30T05:08:20.456Z,18.33
2019-04-30T05:10:50.001Z,19.33
2019-04-30T05:13:19.483Z,21.73
2019-04-30T05:15:51.641Z,20.30
2019-04-30T05:18:22.774Z,21.67
2019-04-30T05:20:51.828Z,19.60
2019-04-30T05:23:21.945Z,19.30
2019-04-30T05:25:51.596Z,22.42
2019-04-30T05:28:21.102Z,21.60
2019-04-30T05:30:50.610Z,19.48
2019-04-30T05:33:20.155Z,22.53
2019-04-30T05:35:49.704Z,18.67
2019-04-30T05:38:19.264Z,22.03
2019-04-30T05:40:49.548Z,21.67
2019-04-30T05:43:19.335Z,19.17
2019-04-30T05:45:49.308Z,21.30
2019-04-30T05:48:18.890Z,20.97
2019-04-30T05:50:51.433Z,21.90
2019-04-30T05:53:19.640Z,20.27
2019-04-30T05:55:49.803Z,20.90
2019-04-30T05:58:19.918Z,20.13
2019-04-30T06:00:50.195Z,20.67
2019-04-30T06:03:30.761Z,18.87
2019-04-30T06:06:01.819Z,21.02
2019-04-30T06:08:39.327Z,18.40
2019-04-30T06:11:15.527Z,19.77
2019-04-30T06:14:00.419Z,19.63
2019-04-30T06:16:30.067Z,17.50
2019-04-30T06:19:00.193Z,21.37
2019-04-30T06:21:29.708Z,20.83
2019-04-30T06:23:59.280Z,23.73
2019-04-30T06:26:29.639Z,17.92
2019-04-30T06:28:59.431Z,20.97
2019-04-30T06:31:34.804Z,19.20
2019-04-30T06:34:00.421Z,20.67
2019-04-30T06:36:30.074Z,19.90
2019-04-30T06:38:59.590Z,20.30
2019-04-30T06:41:29.689Z,21.27
2019-04-30T06:43:59.350Z,20.90
2019-04-30T06:46:29.349Z,21.90
2019-04-30T06:48:59.617Z,21.23
2019-04-30T06:51:30.793Z,21.17
2019-04-30T06:54:00.408Z,19.53
2019-04-30T06:56:29.947Z,19.17
2019-04-30T06:59:03.714Z,17.90
2019-04-30T07:01:36.098Z,20.62
2019-04-30T07:04:05.656Z,17.63
2019-04-30T07:06:37.029Z,18.70
2019-04-30T07:09:43.642Z,19.93
2019-04-30T07:12:29.904Z,18.05
2019-04-30T07:14:59.176Z,18.70
2019-04-30T07:17:29.454Z,17.10
2019-04-30T07:19:59.808Z,20.32
2019-04-30T07:22:39.741Z,19.27
2019-04-30T07:25:00.811Z,19.40
2019-04-30T07:27:32.309Z,18.20
2019-04-30T07:30:01.517Z,19.23
2019-04-30T07:32:31.029Z,18.57
2019-04-30T07:35:00.573Z,17.83
2019-04-30T07:37:30.138Z,16.23
2019-04-30T07:39:59.588Z,17.27
2019-04-30T07:42:29.644Z,16.82
2019-04-30T07:45:00.739Z,17.37
2019-04-30T07:47:31.568Z,17.70
2019-04-30T07:50:01.101Z,17.83
2019-04-30T07:52:33.829Z,16.17
2019-04-30T07:55:02.958Z,16.97
2019-04-30T07:57:32.687Z,17.20
2019-04-30T08:00:02.237Z,18.27
2019-04-30T08:02:41.514Z,17.17
2019-04-30T08:05:14.553Z,15.75
2019-04-30T08:07:44.148Z,16.20
2019-04-30T08:10:13.718Z,16.50
2019-04-30T08:12:44.520Z,17.13
2019-04-30T08:15:14.393Z,18.13
2019-04-30T08:17:43.914Z,17.57
2019-04-30T08:20:15.849Z,18.13
2019-04-30T08:22:44.737Z,17.47
2019-04-30T08:25:14.308Z,17.40
2019-04-30T08:27:43.851Z,16.90
2019-04-30T08:30:25.628Z,16.20
2019-04-30T08:32:44.672Z,17.20
2019-04-30T08:35:14.253Z,17.27
2019-04-30T08:37:43.798Z,18.80
2019-04-30T08:40:13.372Z,16.70
2019-04-30T08:42:42.947Z,18.10
2019-04-30T08:45:13.122Z,17.30
2019-04-30T08:47:42.747Z,19.33
2019-04-30T08:50:12.592Z,20.17
2019-04-30T08:52:42.178Z,18.27
2019-04-30T08:55:16.524Z,16.48
2019-04-30T08:57:44.038Z,18.32
2019-04-30T09:00:15.121Z,16.00
2019-04-30T09:02:44.740Z,16.97
2019-04-30T09:05:20.866Z,17.27
2019-04-30T09:07:50.394Z,16.97
2019-04-30T09:10:19.915Z,16.07
2019-04-30T09:12:51.887Z,19.30
2019-04-30T09:15:20.834Z,14.43
2019-04-30T09:18:00.814Z,14.80
2019-04-30T09:20:22.630Z,14.73
2019-04-30T09:22:52.136Z,15.63
2019-04-30T09:25:21.665Z,13.37
2019-04-30T09:27:51.166Z,15.63
2019-04-30T09:30:20.689Z,17.03
2019-04-30T09:32:50.508Z,17.13
2019-04-30T09:35:20.028Z,14.97
2019-04-30T09:37:58.698Z,17.57
2019-04-30T09:40:21.260Z,17.77
2019-04-30T09:42:50.791Z,16.20
2019-04-30T09:45:20.305Z,17.53
2019-04-30T09:47:50.560Z,19.03
2019-04-30T09:50:20.316Z,20.27
2019-04-30T09:52:50.148Z,17.23
2019-04-30T09:55:20.047Z,18.40
2019-04-30T09:57:49.547Z,19.10
2019-04-30T10:00:20.021Z,17.43
2019-04-30T10:02:49.615Z,18.80
2019-04-30T10:05:20.172Z,18.13
2019-04-30T10:07:50.130Z,21.97
2019-04-30T10:10:23.349Z,19.03
2019-04-30T10:12:52.958Z,17.87
2019-04-30T10:15:33.898Z,19.52
2019-04-30T10:18:03.602Z,20.10
2019-04-30T10:20:40.610Z,22.27
2019-04-30T10:23:10.306Z,26.00
2019-04-30T10:25:40.140Z,27.10
2019-04-30T10:28:10.121Z,26.83
2019-04-30T10:30:40.798Z,25.92
2019-04-30T10:33:10.311Z,29.40
2019-04-30T10:35:39.827Z,28.60
2019-04-30T10:38:09.876Z,28.07
2019-04-30T10:40:39.566Z,29.27
2019-04-30T10:43:09.232Z,28.47
2019-04-30T10:45:39.056Z,27.10
2019-04-30T10:48:08.639Z,27.07
2019-04-30T10:50:40.796Z,26.47
2019-04-30T10:53:12.241Z,23.93
2019-04-30T10:55:40.736Z,25.55
2019-04-30T10:58:10.240Z,27.30
2019-04-30T11:00:40.693Z,23.05
2019-04-30T11:03:19.560Z,24.53
2019-04-30T11:05:41.745Z,25.85
2019-04-30T11:08:11.262Z,25.17
2019-04-30T11:10:40.800Z,25.00
2019-04-30T11:13:10.292Z,24.40
2019-04-30T11:15:39.911Z,26.17
2019-04-30T11:18:09.667Z,22.13
2019-04-30T11:20:39.837Z,24.20
2019-04-30T11:23:14.498Z,23.00
2019-04-30T11:25:42.647Z,22.97
2019-04-30T11:28:13.086Z,22.20
2019-04-30T11:30:43.394Z,22.27
2019-04-30T11:33:13.604Z,21.07
2019-04-30T11:35:43.210Z,23.47
2019-04-30T11:38:12.736Z,23.07
2019-04-30T11:40:42.296Z,21.50
2019-04-30T11:43:11.821Z,22.97
2019-04-30T11:46:23.566Z,21.90
2019-04-30T11:48:53.493Z,20.35
2019-04-30T11:51:23.975Z,23.18
2019-04-30T11:53:53.942Z,21.57
2019-04-30T11:56:23.433Z,21.07
2019-04-30T11:58:52.951Z,21.60
2019-04-30T12:01:25.122Z,21.10
2019-04-30T12:03:54.632Z,20.30
2019-04-30T12:06:24.314Z,20.60
2019-04-30T12:09:13.839Z,18.90
2019-04-30T12:11:43.663Z,19.40
2019-04-30T12:14:13.119Z,18.90
2019-04-30T12:16:42.624Z,19.23
2019-04-30T12:19:12.131Z,19.30
2019-04-30T12:21:41.625Z,21.77
2019-04-30T12:24:11.150Z,20.00
2019-04-30T12:26:40.642Z,17.67
2019-04-30T12:29:11.201Z,20.73
2019-04-30T12:31:40.829Z,19.33
2019-04-30T12:34:10.362Z,17.35
2019-04-30T12:36:39.859Z,18.07
2019-04-30T12:39:09.697Z,18.40
2019-04-30T12:41:40.661Z,18.55
2019-04-30T12:44:10.352Z,19.83
2019-04-30T12:46:39.886Z,19.13
2019-04-30T12:49:11.435Z,20.00
2019-04-30T12:51:48.762Z,21.10
2019-04-30T12:54:56.341Z,20.67
2019-04-30T12:57:35.593Z,19.83
2019-04-30T13:00:09.428Z,21.07
2019-04-30T13:02:40.409Z,19.50
2019-04-30T13:05:10.336Z,21.63
2019-04-30T13:07:40.743Z,19.87
2019-04-30T13:10:12.345Z,19.80
2019-04-30T13:12:42.866Z,19.33
2019-04-30T13:15:13.052Z,20.77
2019-04-30T13:17:42.606Z,21.40
2019-04-30T13:20:18.811Z,19.93
2019-04-30T13:22:44.410Z,21.27
2019-04-30T13:25:14.145Z,21.50
2019-04-30T13:27:47.420Z,22.45
2019-04-30T13:30:25.372Z,22.37
2019-04-30T13:33:20.232Z,20.17
2019-04-30T13:35:48.870Z,20.03
2019-04-30T13:38:23.747Z,20.73
2019-04-30T13:41:08.894Z,20.27
2019-04-30T13:43:58.822Z,19.67
2019-04-30T13:46:29.713Z,22.30
2019-04-30T13:48:59.515Z,19.57
2019-04-30T13:51:29.618Z,19.52
2019-04-30T13:53:59.646Z,19.23
2019-04-30T13:56:29.558Z,21.75
2019-04-30T13:58:59.599Z,21.02
2019-04-30T14:01:30.192Z,20.67
2019-04-30T14:04:18.049Z,20.13
2019-04-30T14:07:22.051Z,19.80
2019-04-30T14:09:52.500Z,18.77
2019-04-30T14:12:22.078Z,20.80
2019-04-30T14:14:51.624Z,19.73
2019-04-30T14:17:21.139Z,20.53
2019-04-30T14:19:50.678Z,19.53
2019-04-30T14:22:20.211Z,18.30
2019-04-30T14:24:49.736Z,19.20
2019-04-30T14:27:19.270Z,21.37
2019-04-30T14:29:49.549Z,20.43
2019-04-30T14:32:19.076Z,18.40
2019-04-30T14:34:50.584Z,18.70
2019-04-30T14:37:19.836Z,16.57
2019-04-30T14:39:49.742Z,19.27
2019-04-30T14:42:20.873Z,16.30
2019-04-30T14:44:55.150Z,18.50
2019-04-30T14:47:36.412Z,19.63
2019-04-30T14:50:11.674Z,17.97
2019-04-30T14:52:57.940Z,17.73
2019-04-30T14:55:46.565Z,18.17
2019-04-30T14:58:35.114Z,17.30
2019-04-30T15:01:19.742Z,18.33
2019-04-30T15:03:49.525Z,16.30
2019-04-30T15:06:19.429Z,17.60
2019-04-30T15:08:49.922Z,18.73
2019-04-30T15:11:19.434Z,18.30
2019-04-30T15:13:50.009Z,17.37
2019-04-30T15:16:19.534Z,17.73
2019-04-30T15:18:49.285Z,16.30
2019-04-30T15:21:18.953Z,17.03
2019-04-30T15:24:01.816Z,16.90
2019-04-30T15:26:32.341Z,15.00
2019-04-30T15:29:11.787Z,15.60
2019-04-30T15:31:34.140Z,16.77
2019-04-30T15:34:11.059Z,15.17
2019-04-30T15:36:40.845Z,17.77
2019-04-30T15:39:32.944Z,16.37
2019-04-30T15:42:02.520Z,16.32
2019-04-30T15:44:40.046Z,16.50
2019-04-30T15:47:05.320Z,14.80
2019-04-30T15:49:35.143Z,14.80
2019-04-30T15:52:04.977Z,16.37
2019-04-30T15:54:34.511Z,16.73
2019-04-30T15:57:05.388Z,18.03
2019-04-30T15:59:39.706Z,17.83
2019-04-30T16:02:13.789Z,16.52
2019-04-30T16:05:11.618Z,16.07
2019-04-30T16:07:51.581Z,17.23
2019-04-30T16:10:39.636Z,15.73
2019-04-30T16:13:15.481Z,14.87
2019-04-30T16:15:44.974Z,16.00
2019-04-30T16:18:14.515Z,14.83
2019-04-30T16:20:44.092Z,14.67
2019-04-30T16:23:13.643Z,16.85
2019-04-30T16:25:43.146Z,17.43
2019-04-30T16:28:12.646Z,15.63
2019-04-30T16:30:42.905Z,14.50
2019-04-30T16:33:12.929Z,15.50
2019-04-30T16:35:42.424Z,14.80
2019-04-30T16:38:12.023Z,14.38
2019-04-30T16:40:41.526Z,13.33
2019-04-30T16:43:11.054Z,14.50
2019-04-30T16:45:40.645Z,12.50
2019-04-30T16:48:12.090Z,13.87
2019-04-30T16:50:41.357Z,13.60
2019-04-30T16:53:10.891Z,13.70
2019-04-30T16:55:40.386Z,13.80
2019-04-30T16:58:09.910Z,14.50
2019-04-30T17:00:39.505Z,13.60
2019-04-30T17:03:19.136Z,12.67
2019-04-30T17:05:53.393Z,14.17
2019-04-30T17:08:34.118Z,13.40
2019-04-30T17:11:25.442Z,13.60
2019-04-30T17:13:58.194Z,15.10
2019-04-30T17:16:27.690Z,13.57
2019-04-30T17:18:59.038Z,13.70
2019-04-30T17:21:29.685Z,14.37
2019-04-30T17:23:59.256Z,13.03
2019-04-30T17:26:28.767Z,13.40
2019-04-30T17:28:59.869Z,14.07
2019-04-30T17:31:29.467Z,14.00
2019-04-30T17:33:58.970Z,12.73
2019-04-30T17:36:29.780Z,14.10
2019-04-30T17:38:59.319Z,13.10
2019-04-30T17:41:28.894Z,12.80
2019-04-30T17:43:59.036Z,12.47
2019-04-30T17:46:28.618Z,12.63
2019-04-30T17:48:59.247Z,14.40
2019-04-30T17:51:28.880Z,13.17
2019-04-30T17:54:13.266Z,11.77
2019-04-30T17:56:44.221Z,12.27
2019-04-30T17:59:14.592Z,13.85
2019-04-30T18:01:50.015Z,11.00
2019-04-30T18:04:22.015Z,12.67
2019-04-30T18:06:50.766Z,10.90
2019-04-30T18:09:21.017Z,12.00
2019-04-30T18:11:50.815Z,12.23
2019-04-30T18:14:20.335Z,11.00
2019-04-30T18:16:49.845Z,10.88
2019-04-30T18:19:32.226Z,11.00
2019-04-30T18:22:09.563Z,11.37
2019-04-30T18:24:56.811Z,10.37
2019-04-30T18:27:42.404Z,11.33
2019-04-30T18:30:01.735Z,9.97
2019-04-30T18:32:32.378Z,12.33
2019-04-30T18:35:01.897Z,10.17
2019-04-30T18:37:31.416Z,10.70
2019-04-30T18:40:02.020Z,9.17
2019-04-30T18:42:32.079Z,10.07
2019-04-30T18:45:02.317Z,9.93
2019-04-30T18:47:33.507Z,10.80
2019-04-30T18:50:03.009Z,9.37
2019-04-30T18:52:33.725Z,9.60
2019-04-30T18:55:03.250Z,10.77
2019-04-30T18:57:40.650Z,9.80
2019-04-30T19:00:10.692Z,9.93
2019-04-30T19:02:40.580Z,9.70
2019-04-30T19:05:14.383Z,10.40
2019-04-30T19:07:52.007Z,10.20
2019-04-30T19:10:31.682Z,10.10
2019-04-30T19:13:20.333Z,9.90
2019-04-30T19:16:21.320Z,10.20
2019-04-30T19:18:49.379Z,10.87
2019-04-30T19:21:18.890Z,10.05
2019-04-30T19:23:48.791Z,10.63
2019-04-30T19:26:19.273Z,9.23
2019-04-30T19:28:49.805Z,10.43
2019-04-30T19:31:19.887Z,8.93
2019-04-30T19:33:49.561Z,10.77
2019-04-30T19:36:20.979Z,9.80
2019-04-30T19:38:50.862Z,10.55
2019-04-30T19:41:20.372Z,10.90
2019-04-30T19:43:50.200Z,10.60
2019-04-30T19:46:19.782Z,9.05
2019-04-30T19:48:50.683Z,11.40
2019-04-30T19:51:20.340Z,10.43
2019-04-30T19:53:49.852Z,11.70
2019-04-30T19:56:20.597Z,11.17
2019-04-30T19:59:01.507Z,11.10
2019-04-30T20:01:22.410Z,12.70
2019-04-30T20:03:51.933Z,12.40
2019-04-30T20:06:21.438Z,10.97
2019-04-30T20:08:50.966Z,11.33
2019-04-30T20:11:20.542Z,12.43
2019-04-30T20:13:50.079Z,13.48
2019-04-30T20:16:19.721Z,10.90
2019-04-30T20:18:49.400Z,12.23
2019-04-30T20:21:28.071Z,13.87
2019-04-30T20:23:51.880Z,13.03
2019-04-30T20:26:22.366Z,13.17
2019-04-30T20:28:51.891Z,14.67
2019-04-30T20:31:22.361Z,13.85
2019-04-30T20:33:53.790Z,13.32
2019-04-30T20:36:23.319Z,13.80
2019-04-30T20:39:17.896Z,14.17
2019-04-30T20:41:49.348Z,13.57
2019-04-30T20:44:19.026Z,14.63
2019-04-30T20:46:49.536Z,14.60
2019-04-30T20:49:19.333Z,16.00
2019-04-30T20:51:55.207Z,14.77
2019-04-30T20:54:20.034Z,15.10
2019-04-30T20:56:50.996Z,15.27
2019-04-30T20:59:20.672Z,17.07
2019-04-30T21:01:50.277Z,16.90
2019-04-30T21:04:20.969Z,19.12
2019-04-30T21:06:51.033Z,18.57
2019-04-30T21:09:20.672Z,16.83
2019-04-30T21:11:50.191Z,18.10
2019-04-30T21:14:19.716Z,19.40
2019-04-30T21:16:49.222Z,17.70
2019-04-30T21:19:18.744Z,19.97
2019-04-30T21:21:49.702Z,16.87
2019-04-30T21:24:20.405Z,17.98
2019-04-30T21:26:49.911Z,17.87
2019-04-30T21:29:19.492Z,18.60
2019-04-30T21:32:10.871Z,19.33
2019-04-30T21:34:45.159Z,17.50
2019-04-30T21:37:15.588Z,18.10
2019-04-30T21:39:45.573Z,22.25
2019-04-30T21:42:15.603Z,19.17
2019-04-30T21:44:45.584Z,21.07
2019-04-30T21:47:15.756Z,20.32
2019-04-30T21:49:45.692Z,19.62
2019-04-30T21:52:15.731Z,18.93
2019-04-30T21:54:45.722Z,19.15
2019-04-30T21:57:15.710Z,18.60
2019-04-30T21:59:45.643Z,18.90
2019-04-30T22:02:15.715Z,19.37
2019-04-30T22:04:45.677Z,18.62
2019-04-30T22:07:15.810Z,18.45
2019-04-30T22:09:45.839Z,20.15
2019-04-30T22:12:15.866Z,20.25
2019-04-30T22:14:45.853Z,22.25
2019-04-30T22:17:15.886Z,20.72
2019-04-30T22:19:45.883Z,20.27
2019-04-30T22:22:15.905Z,20.70
2019-04-30T22:24:46.146Z,20.27
2019-04-30T22:27:17.435Z,23.27
2019-04-30T22:29:47.017Z,21.07
2019-04-30T22:32:16.518Z,21.50
2019-04-30T22:34:46.094Z,23.27
2019-04-30T22:37:16.083Z,20.82
2019-04-30T22:39:52.030Z,22.98
2019-04-30T22:42:40.011Z,19.70
2019-04-30T22:45:19.088Z,21.90
2019-04-30T22:47:50.395Z,23.80
2019-04-30T22:50:19.988Z,22.40
2019-04-30T22:52:49.609Z,23.00
2019-04-30T22:55:19.130Z,22.77
2019-04-30T22:57:48.629Z,24.93
2019-04-30T23:00:28.066Z,24.40
2019-04-30T23:03:03.652Z,25.50
2019-04-30T23:05:33.167Z,23.83
2019-04-30T23:08:02.876Z,25.53
2019-04-30T23:10:32.399Z,22.60
2019-04-30T23:13:03.033Z,25.13
2019-04-30T23:15:32.612Z,24.30
2019-04-30T23:18:02.473Z,24.52
2019-04-30T23:20:32.005Z,24.60
2019-04-30T23:23:01.520Z,26.10
2019-04-30T23:25:31.089Z,21.20
2019-04-30T23:28:00.594Z,22.83
2019-04-30T23:30:30.119Z,23.60
2019-04-30T23:32:59.628Z,23.63
2019-04-30T23:35:29.142Z,23.80
2019-04-30T23:37:58.806Z,21.43
2019-04-30T23:40:30.236Z,23.57
2019-04-30T23:42:59.860Z,23.03
2019-04-30T23:45:29.837Z,23.17
2019-04-30T23:47:59.354Z,23.57
2019-04-30T23:50:28.849Z,23.30
2019-04-30T23:52:58.392Z,22.60
2019-04-30T23:55:27.899Z,22.20
2019-04-30T23:57:57.421Z,22.13
